sensor_id;sensor_type;location;lat;lon;timestamp;pressure;altitude;pressure_sealevel;temperature;humidity
13420;BME280;6781;58.440;15.470;2022-12-07T00:00:00;100869.88;;;-4.39;100.00
13420;BME280;6781;58.440;15.470;2022-12-07T00:02:28;100864.00;;;-4.43;100.00
13420;BME280;6781;58.440;15.470;2022-12-07T00:04:55;100863.25;;;-4.49;100.00
13420;BME280;6781;58.440;15.470;2022-12-07T00:07:22;100863.31;;;-4.54;100.00
13420;BME280;6781;58.440;15.470;2022-12-07T00:09:48;100856.56;;;-4.53;100.00
13420;BME280;6781;58.440;15.470;2022-12-07T00:12:16;100857.34;;;-4.50;100.00
13420;BME280;6781;58.440;15.470;2022-12-07T00:14:42;100868.31;;;-4.49;100.00
13420;BME280;6781;58.440;15.470;2022-12-07T00:17:09;100867.44;;;-4.48;100.00
13420;BME280;6781;58.440;15.470;2022-12-07T00:19:37;100867.44;;;-4.48;100.00
13420;BME280;6781;58.440;15.470;2022-12-07T00:22:04;100869.16;;;-4.50;100.00
13420;BME280;6781;58.440;15.470;2022-12-07T00:24:30;100864.91;;;-4.48;100.00
13420;BME280;6781;58.440;15.470;2022-12-07T00:26:57;100859.88;;;-4.48;100.00
13420;BME280;6781;58.440;15.470;2022-12-07T00:29:24;100857.34;;;-4.50;100.00
13420;BME280;6781;58.440;15.470;2022-12-07T00:31:50;100858.19;;;-4.49;100.00
13420;BME280;6781;58.440;15.470;2022-12-07T00:34:18;100861.59;;;-4.52;100.00
13420;BME280;6781;58.440;15.470;2022-12-07T00:36:47;100862.47;;;-4.54;100.00
13420;BME280;6781;58.440;15.470;2022-12-07T00:39:14;100854.09;;;-4.58;100.00
13420;BME280;6781;58.440;15.470;2022-12-07T00:41:40;100853.22;;;-4.57;100.00
13420;BME280;6781;58.440;15.470;2022-12-07T00:44:07;100850.69;;;-4.57;100.00
13420;BME280;6781;58.440;15.470;2022-12-07T00:46:34;100850.75;;;-4.60;100.00
13420;BME280;6781;58.440;15.470;2022-12-07T00:49:00;100844.06;;;-4.66;100.00
13420;BME280;6781;58.440;15.470;2022-12-07T00:51:27;100849.97;;;-4.67;100.00
13420;BME280;6781;58.440;15.470;2022-12-07T00:53:55;100853.31;;;-4.65;100.00
13420;BME280;6781;58.440;15.470;2022-12-07T00:56:23;100856.72;;;-4.66;100.00
13420;BME280;6781;58.440;15.470;2022-12-07T00:58:50;100851.69;;;-4.69;100.00
13420;BME280;6781;58.440;15.470;2022-12-07T01:01:17;100850.84;;;-4.69;100.00
13420;BME280;6781;58.440;15.470;2022-12-07T01:03:45;100847.47;;;-4.68;100.00
13420;BME280;6781;58.440;15.470;2022-12-07T01:06:13;100850.88;;;-4.71;100.00
13420;BME280;6781;58.440;15.470;2022-12-07T01:08:40;100634.66;;;-6.34;100.00
13420;BME280;6781;58.440;15.470;2022-12-07T01:11:09;100843.34;;;-4.77;100.00
13420;BME280;6781;58.440;15.470;2022-12-07T01:13:37;100848.38;;;-4.74;100.00
13420;BME280;6781;58.440;15.470;2022-12-07T01:16:05;100843.34;;;-4.77;100.00
13420;BME280;6781;58.440;15.470;2022-12-07T01:18:33;100837.66;;;-4.94;100.00
13420;BME280;6781;58.440;15.470;2022-12-07T01:21:00;100835.13;;;-4.93;100.00
13420;BME280;6781;58.440;15.470;2022-12-07T01:23:28;100836.69;;;-4.84;100.00
13420;BME280;6781;58.440;15.470;2022-12-07T01:25:56;100842.63;;;-4.86;100.00
13420;BME280;6781;58.440;15.470;2022-12-07T01:28:24;100844.28;;;-4.84;100.00
13420;BME280;6781;58.440;15.470;2022-12-07T01:30:54;100843.44;;;-4.83;100.00
13420;BME280;6781;58.440;15.470;2022-12-07T01:33:21;100840.91;;;-4.84;100.00
13420;BME280;6781;58.440;15.470;2022-12-07T01:35:48;100835.88;;;-4.86;100.00
13420;BME280;6781;58.440;15.470;2022-12-07T01:38:14;100824.31;;;-5.05;100.00
13420;BME280;6781;58.440;15.470;2022-12-07T01:40:41;100820.38;;;-5.28;100.00
13420;BME280;6781;58.440;15.470;2022-12-07T01:43:09;100823.50;;;-5.07;100.00
13420;BME280;6781;58.440;15.470;2022-12-07T01:45:42;100830.16;;;-5.02;100.00
13420;BME280;6781;58.440;15.470;2022-12-07T01:48:11;100825.09;;;-5.00;100.00
13420;BME280;6781;58.440;15.470;2022-12-07T01:50:38;100820.03;;;-5.00;100.00
13420;BME280;6781;58.440;15.470;2022-12-07T01:53:07;100816.94;;;-5.20;100.00
13420;BME280;6781;58.440;15.470;2022-12-07T01:55:36;100805.94;;;-5.19;100.00
13420;BME280;6781;58.440;15.470;2022-12-07T01:58:04;100802.44;;;-5.08;100.00
13420;BME280;6781;58.440;15.470;2022-12-07T02:00:32;100804.09;;;-5.07;100.00
13420;BME280;6781;58.440;15.470;2022-12-07T02:03:01;100806.63;;;-5.05;100.00
13420;BME280;6781;58.440;15.470;2022-12-07T02:05:30;100810.00;;;-5.06;100.00
13420;BME280;6781;58.440;15.470;2022-12-07T02:07:57;100795.16;;;-5.34;100.00
13420;BME280;6781;58.440;15.470;2022-12-07T02:10:26;100794.97;;;-5.18;100.00
13420;BME280;6781;58.440;15.470;2022-12-07T02:12:54;100794.97;;;-5.18;100.00
13420;BME280;6781;58.440;15.470;2022-12-07T02:15:23;100798.28;;;-5.13;100.00
13420;BME280;6781;58.440;15.470;2022-12-07T02:17:54;100781.53;;;-5.20;100.00
13420;BME280;6781;58.440;15.470;2022-12-07T02:20:27;100789.91;;;-5.17;100.00
13420;BME280;6781;58.440;15.470;2022-12-07T02:25:54;100793.22;;;-5.13;100.00
13420;BME280;6781;58.440;15.470;2022-12-07T02:28:26;100783.16;;;-5.16;100.00
13420;BME280;6781;58.440;15.470;2022-12-07T02:30:58;100774.09;;;-5.31;100.00
13420;BME280;6781;58.440;15.470;2022-12-07T02:33:29;100764.91;;;-5.40;100.00
13420;BME280;6781;58.440;15.470;2022-12-07T02:36:00;100758.19;;;-5.41;100.00
13420;BME280;6781;58.440;15.470;2022-12-07T02:38:30;100756.38;;;-5.30;100.00
13420;BME280;6781;58.440;15.470;2022-12-07T02:41:00;100759.75;;;-5.31;100.00
13420;BME280;6781;58.440;15.470;2022-12-07T02:43:30;100760.75;;;-5.44;100.00
13420;BME280;6781;58.440;15.470;2022-12-07T02:46:00;100756.59;;;-5.48;100.00
13420;BME280;6781;58.440;15.470;2022-12-07T02:48:28;100753.31;;;-5.56;100.00
13420;BME280;6781;58.440;15.470;2022-12-07T02:50:57;100748.16;;;-5.48;100.00
13420;BME280;6781;58.440;15.470;2022-12-07T02:53:34;100730.66;;;-5.64;100.00
13420;BME280;6781;58.440;15.470;2022-12-07T02:56:01;100714.78;;;-5.75;100.00
13420;BME280;6781;58.440;15.470;2022-12-07T02:58:32;100718.75;;;-5.54;100.00
13420;BME280;6781;58.440;15.470;2022-12-07T03:01:08;100722.81;;;-5.41;100.00
13420;BME280;6781;58.440;15.470;2022-12-07T03:03:39;100724.44;;;-5.34;100.00
13420;BME280;6781;58.440;15.470;2022-12-07T03:08:47;100723.63;;;-5.36;100.00
13420;BME280;6781;58.440;15.470;2022-12-07T03:11:16;100712.75;;;-5.44;100.00
13420;BME280;6781;58.440;15.470;2022-12-07T03:13:46;100710.19;;;-5.39;100.00
13420;BME280;6781;58.440;15.470;2022-12-07T03:16:15;100712.66;;;-5.35;100.00
13420;BME280;6781;58.440;15.470;2022-12-07T03:18:44;100720.13;;;-5.26;100.00
13420;BME280;6781;58.440;15.470;2022-12-07T03:21:14;100716.78;;;-5.28;100.00
13420;BME280;6781;58.440;15.470;2022-12-07T03:23:42;100707.59;;;-5.35;100.00
13420;BME280;6781;58.440;15.470;2022-12-07T03:26:10;100703.47;;;-5.42;100.00
13420;BME280;6781;58.440;15.470;2022-12-07T03:28:39;100707.50;;;-5.27;100.00
13420;BME280;6781;58.440;15.470;2022-12-07T03:31:10;100704.94;;;-5.24;100.00
13420;BME280;6781;58.440;15.470;2022-12-07T03:33:43;100700.81;;;-5.30;100.00
13420;BME280;6781;58.440;15.470;2022-12-07T03:36:14;100700.94;;;-5.42;100.00
13420;BME280;6781;58.440;15.470;2022-12-07T03:38:44;100699.19;;;-5.37;100.00
13420;BME280;6781;58.440;15.470;2022-12-07T03:41:14;100688.25;;;-5.37;100.00
13420;BME280;6781;58.440;15.470;2022-12-07T03:43:44;100682.34;;;-5.35;100.00
13420;BME280;6781;58.440;15.470;2022-12-07T03:46:13;100692.31;;;-5.26;100.00
13420;BME280;6781;58.440;15.470;2022-12-07T03:48:48;100686.41;;;-5.23;100.00
13420;BME280;6781;58.440;15.470;2022-12-07T03:51:18;100676.25;;;-5.20;100.00
13420;BME280;6781;58.440;15.470;2022-12-07T03:53:48;100675.41;;;-5.20;100.00
13420;BME280;6781;58.440;15.470;2022-12-07T03:56:17;100682.16;;;-5.21;100.00
13420;BME280;6781;58.440;15.470;2022-12-07T03:58:44;100677.06;;;-5.19;100.00
13420;BME280;6781;58.440;15.470;2022-12-07T04:01:12;100678.78;;;-5.21;100.00
13420;BME280;6781;58.440;15.470;2022-12-07T04:03:38;100666.16;;;-5.21;100.00
13420;BME280;6781;58.440;15.470;2022-12-07T04:06:06;100660.19;;;-5.17;100.00
13420;BME280;6781;58.440;15.470;2022-12-07T04:08:33;100651.75;;;-5.16;100.00
13420;BME280;6781;58.440;15.470;2022-12-07T04:11:00;100646.84;;;-5.26;100.00
13420;BME280;6781;58.440;15.470;2022-12-07T04:13:27;100643.41;;;-5.21;100.00
13420;BME280;6781;58.440;15.470;2022-12-07T04:15:54;100645.94;;;-5.20;100.00
13420;BME280;6781;58.440;15.470;2022-12-07T04:18:21;100645.13;;;-5.23;100.00
13420;BME280;6781;58.440;15.470;2022-12-07T04:20:48;100636.91;;;-5.39;100.00
13420;BME280;6781;58.440;15.470;2022-12-07T04:23:16;100640.34;;;-5.45;100.00
13420;BME280;6781;58.440;15.470;2022-12-07T04:25:42;100643.69;;;-5.43;100.00
13420;BME280;6781;58.440;15.470;2022-12-07T04:28:09;100633.53;;;-5.37;100.00
13420;BME280;6781;58.440;15.470;2022-12-07T04:30:35;100639.38;;;-5.33;100.00
13420;BME280;6781;58.440;15.470;2022-12-07T04:33:02;100641.13;;;-5.38;100.00
13420;BME280;6781;58.440;15.470;2022-12-07T04:35:29;100636.13;;;-5.43;100.00
13420;BME280;6781;58.440;15.470;2022-12-07T04:37:56;100631.13;;;-5.46;100.00
13420;BME280;6781;58.440;15.470;2022-12-07T04:40:24;100634.59;;;-5.54;100.00
13420;BME280;6781;58.440;15.470;2022-12-07T04:42:51;100629.66;;;-5.64;100.00
13420;BME280;6781;58.440;15.470;2022-12-07T04:45:17;100618.94;;;-5.82;100.00
13420;BME280;6781;58.440;15.470;2022-12-07T04:47:44;100623.00;;;-5.71;100.00
13420;BME280;6781;58.440;15.470;2022-12-07T04:50:11;100638.94;;;-5.67;100.00
13420;BME280;6781;58.440;15.470;2022-12-07T04:52:37;100637.16;;;-5.59;100.00
13420;BME280;6781;58.440;15.470;2022-12-07T04:55:04;100637.28;;;-5.68;100.00
13420;BME280;6781;58.440;15.470;2022-12-07T04:57:32;100642.22;;;-5.59;100.00
13420;BME280;6781;58.440;15.470;2022-12-07T04:59:59;100637.28;;;-5.68;100.00
13420;BME280;6781;58.440;15.470;2022-12-07T05:02:26;100643.22;;;-5.72;100.00
13420;BME280;6781;58.440;15.470;2022-12-07T05:04:52;100637.50;;;-5.86;100.00
13420;BME280;6781;58.440;15.470;2022-12-07T05:07:19;100637.38;;;-5.77;100.00
13420;BME280;6781;58.440;15.470;2022-12-07T05:09:46;100637.25;;;-5.65;100.00
13420;BME280;6781;58.440;15.470;2022-12-07T05:12:13;100647.38;;;-5.68;100.00
13420;BME280;6781;58.440;15.470;2022-12-07T05:14:41;100642.41;;;-5.74;100.00
13420;BME280;6781;58.440;15.470;2022-12-07T05:17:08;100647.38;;;-5.68;100.00
13420;BME280;6781;58.440;15.470;2022-12-07T05:19:36;100644.91;;;-5.73;100.00
13420;BME280;6781;58.440;15.470;2022-12-07T05:22:03;100654.97;;;-5.70;100.00
13420;BME280;6781;58.440;15.470;2022-12-07T05:24:30;100650.75;;;-5.69;100.00
13420;BME280;6781;58.440;15.470;2022-12-07T05:26:56;100655.84;;;-5.74;100.00
13420;BME280;6781;58.440;15.470;2022-12-07T05:29:23;100660.06;;;-5.73;100.00
13420;BME280;6781;58.440;15.470;2022-12-07T05:31:52;100649.25;;;-5.84;100.00
13420;BME280;6781;58.440;15.470;2022-12-07T05:34:18;100653.28;;;-5.69;100.00
13420;BME280;6781;58.440;15.470;2022-12-07T05:36:45;100655.72;;;-5.62;100.00
13420;BME280;6781;58.440;15.470;2022-12-07T05:39:12;100660.91;;;-5.72;100.00
13420;BME280;6781;58.440;15.470;2022-12-07T05:41:38;100659.22;;;-5.73;100.00
13420;BME280;6781;58.440;15.470;2022-12-07T05:44:22;100652.56;;;-5.80;100.00
13420;BME280;6781;58.440;15.470;2022-12-07T05:46:49;100651.06;;;-5.95;100.00
13420;BME280;6781;58.440;15.470;2022-12-07T05:49:17;100655.13;;;-5.83;100.00
13420;BME280;6781;58.440;15.470;2022-12-07T05:51:45;100655.03;;;-5.74;100.00
13420;BME280;6781;58.440;15.470;2022-12-07T05:54:11;100650.19;;;-5.91;100.00
13420;BME280;6781;58.440;15.470;2022-12-07T05:56:38;100656.16;;;-5.97;100.00
13420;BME280;6781;58.440;15.470;2022-12-07T05:59:05;100653.53;;;-5.89;100.00
13420;BME280;6781;58.440;15.470;2022-12-07T06:01:50;100651.69;;;-5.78;100.00
13420;BME280;6781;58.440;15.470;2022-12-07T06:04:20;100653.41;;;-5.80;100.00
13420;BME280;6781;58.440;15.470;2022-12-07T06:06:48;100647.75;;;-5.99;100.00
13420;BME280;6781;58.440;15.470;2022-12-07T06:09:15;100641.94;;;-6.05;100.00
13420;BME280;6781;58.440;15.470;2022-12-07T06:11:43;100652.81;;;-5.99;100.00
13420;BME280;6781;58.440;15.470;2022-12-07T06:14:27;100644.53;;;-6.13;100.00
13420;BME280;6781;58.440;15.470;2022-12-07T06:16:54;100655.38;;;-6.03;100.00
13420;BME280;6781;58.440;15.470;2022-12-07T06:19:22;100651.31;;;-6.18;100.00
13420;BME280;6781;58.440;15.470;2022-12-07T06:21:49;100649.56;;;-6.10;100.00
13420;BME280;6781;58.440;15.470;2022-12-07T06:24:16;100657.09;;;-6.07;100.00
13420;BME280;6781;58.440;15.470;2022-12-07T06:26:43;100663.72;;;-5.97;100.00
13420;BME280;6781;58.440;15.470;2022-12-07T06:29:10;100666.22;;;-5.94;100.00
13420;BME280;6781;58.440;15.470;2022-12-07T06:31:37;100667.88;;;-5.93;100.00
13420;BME280;6781;58.440;15.470;2022-12-07T06:34:04;100666.19;;;-5.91;100.00
13420;BME280;6781;58.440;15.470;2022-12-07T06:36:33;100658.63;;;-5.94;100.00
13420;BME280;6781;58.440;15.470;2022-12-07T06:39:01;100656.00;;;-5.87;100.00
13420;BME280;6781;58.440;15.470;2022-12-07T06:41:27;100654.31;;;-5.85;100.00
13420;BME280;6781;58.440;15.470;2022-12-07T06:43:54;100655.97;;;-5.84;100.00
13420;BME280;6781;58.440;15.470;2022-12-07T06:46:21;100654.34;;;-5.88;100.00
13420;BME280;6781;58.440;15.470;2022-12-07T06:48:48;100653.50;;;-5.87;100.00
13420;BME280;6781;58.440;15.470;2022-12-07T06:51:14;100651.81;;;-5.88;100.00
13420;BME280;6781;58.440;15.470;2022-12-07T06:54:00;100652.63;;;-5.86;100.00
13420;BME280;6781;58.440;15.470;2022-12-07T06:56:27;100657.66;;;-5.83;100.00
13420;BME280;6781;58.440;15.470;2022-12-07T06:58:54;100644.31;;;-5.92;100.00
13420;BME280;6781;58.440;15.470;2022-12-07T07:01:21;100639.47;;;-6.10;100.00
13420;BME280;6781;58.440;15.470;2022-12-07T07:03:47;100644.38;;;-5.98;100.00
13420;BME280;6781;58.440;15.470;2022-12-07T07:06:15;100633.59;;;-6.12;100.00
13420;BME280;6781;58.440;15.470;2022-12-07T07:08:42;100641.13;;;-6.09;100.00
13420;BME280;6781;58.440;15.470;2022-12-07T07:11:10;100648.63;;;-6.03;100.00
13420;BME280;6781;58.440;15.470;2022-12-07T07:13:37;100647.78;;;-6.00;100.00
13420;BME280;6781;58.440;15.470;2022-12-07T07:16:04;100649.34;;;-5.92;100.00
13420;BME280;6781;58.440;15.470;2022-12-07T07:18:31;100634.25;;;-5.95;100.00
13420;BME280;6781;58.440;15.470;2022-12-07T07:20:58;100640.97;;;-5.94;100.00
13420;BME280;6781;58.440;15.470;2022-12-07T07:23:26;100624.50;;;-6.28;100.00
13420;BME280;6781;58.440;15.470;2022-12-07T07:25:53;100625.22;;;-6.15;100.00
13420;BME280;6781;58.440;15.470;2022-12-07T07:28:21;100634.41;;;-6.10;100.00
13420;BME280;6781;58.440;15.470;2022-12-07T07:30:50;100639.38;;;-6.01;100.00
13420;BME280;6781;58.440;15.470;2022-12-07T07:33:17;100643.53;;;-5.98;100.00
13420;BME280;6781;58.440;15.470;2022-12-07T07:35:45;100641.81;;;-5.95;100.00
13420;BME280;6781;58.440;15.470;2022-12-07T07:38:12;100642.66;;;-5.96;100.00
13420;BME280;6781;58.440;15.470;2022-12-07T07:40:39;100640.13;;;-5.94;100.00
13420;BME280;6781;58.440;15.470;2022-12-07T07:43:06;100635.94;;;-5.97;100.00
13420;BME280;6781;58.440;15.470;2022-12-07T07:45:48;100628.44;;;-6.03;100.00
13420;BME280;6781;58.440;15.470;2022-12-07T07:48:14;100626.75;;;-6.02;100.00
13420;BME280;6781;58.440;15.470;2022-12-07T07:50:41;100625.13;;;-6.06;100.00
13420;BME280;6781;58.440;15.470;2022-12-07T07:53:09;100621.03;;;-6.18;100.00
13420;BME280;6781;58.440;15.470;2022-12-07T07:55:36;100628.50;;;-6.09;100.00
13420;BME280;6781;58.440;15.470;2022-12-07T07:58:08;100625.91;;;-6.03;100.00
13420;BME280;6781;58.440;15.470;2022-12-07T08:00:37;100634.31;;;-6.01;100.00
13420;BME280;6781;58.440;15.470;2022-12-07T08:03:05;100638.44;;;-5.94;100.00
13420;BME280;6781;58.440;15.470;2022-12-07T08:05:32;100626.00;;;-6.09;100.00
13420;BME280;6781;58.440;15.470;2022-12-07T08:08:01;100630.03;;;-5.93;100.00
13420;BME280;6781;58.440;15.470;2022-12-07T08:10:27;100635.81;;;-5.87;100.00
13420;BME280;6781;58.440;15.470;2022-12-07T08:12:57;100628.34;;;-5.92;100.00
13420;BME280;6781;58.440;15.470;2022-12-07T08:15:40;100615.84;;;-6.03;100.00
13420;BME280;6781;58.440;15.470;2022-12-07T08:18:09;100617.47;;;-5.99;100.00
13420;BME280;6781;58.440;15.470;2022-12-07T08:20:36;100614.09;;;-5.99;100.00
13420;BME280;6781;58.440;15.470;2022-12-07T08:23:04;100620.75;;;-5.91;100.00
13420;BME280;6781;58.440;15.470;2022-12-07T08:25:31;100615.72;;;-5.94;100.00
13420;BME280;6781;58.440;15.470;2022-12-07T08:27:58;100624.84;;;-5.85;100.00
13420;BME280;6781;58.440;15.470;2022-12-07T08:30:25;100624.97;;;-5.91;100.00
13420;BME280;6781;58.440;15.470;2022-12-07T08:32:54;100619.00;;;-5.88;100.00
13420;BME280;6781;58.440;15.470;2022-12-07T08:35:23;100624.81;;;-5.82;100.00
13420;BME280;6781;58.440;15.470;2022-12-07T08:37:50;100621.63;;;-5.93;100.00
13420;BME280;6781;58.440;15.470;2022-12-07T08:40:16;100630.06;;;-5.96;100.00
13420;BME280;6781;58.440;15.470;2022-12-07T08:42:44;100627.66;;;-6.08;100.00
13420;BME280;6781;58.440;15.470;2022-12-07T08:45:12;100620.16;;;-6.14;100.00
13420;BME280;6781;58.440;15.470;2022-12-07T08:47:40;100626.09;;;-6.18;100.00
13420;BME280;6781;58.440;15.470;2022-12-07T08:50:08;100629.50;;;-6.22;100.00
13420;BME280;6781;58.440;15.470;2022-12-07T08:52:45;100636.19;;;-6.21;100.00
13420;BME280;6781;58.440;15.470;2022-12-07T08:55:28;100642.94;;;-6.23;100.00
13420;BME280;6781;58.440;15.470;2022-12-07T08:57:55;100648.03;;;-6.26;100.00
13420;BME280;6781;58.440;15.470;2022-12-07T09:00:23;100647.97;;;-6.20;100.00
13420;BME280;6781;58.440;15.470;2022-12-07T09:02:51;100659.69;;;-6.13;100.00
13420;BME280;6781;58.440;15.470;2022-12-07T09:05:17;100662.09;;;-6.04;100.00
13420;BME280;6781;58.440;15.470;2022-12-07T09:07:50;100669.59;;;-5.95;100.00
13420;BME280;6781;58.440;15.470;2022-12-07T09:10:18;100657.94;;;-6.08;100.00
13420;BME280;6781;58.440;15.470;2022-12-07T09:12:45;100656.31;;;-6.12;100.00
13420;BME280;6781;58.440;15.470;2022-12-07T09:15:11;100665.41;;;-5.99;100.00
13420;BME280;6781;58.440;15.470;2022-12-07T09:17:38;100667.03;;;-5.93;100.00
13420;BME280;6781;58.440;15.470;2022-12-07T09:20:05;100677.03;;;-5.85;100.00
13420;BME280;6781;58.440;15.470;2022-12-07T09:22:32;100675.31;;;-5.83;100.00
13420;BME280;6781;58.440;15.470;2022-12-07T09:25:01;100672.00;;;-5.87;100.00
13420;BME280;6781;58.440;15.470;2022-12-07T09:27:28;100663.56;;;-5.84;100.00
13420;BME280;6781;58.440;15.470;2022-12-07T09:29:54;100669.41;;;-5.81;100.00
13420;BME280;6781;58.440;15.470;2022-12-07T09:32:21;100666.97;;;-5.88;100.00
13420;BME280;6781;58.440;15.470;2022-12-07T09:34:48;100666.09;;;-5.84;100.00
13420;BME280;6781;58.440;15.470;2022-12-07T09:37:15;100678.63;;;-5.78;100.00
13420;BME280;6781;58.440;15.470;2022-12-07T09:39:41;100672.69;;;-5.73;100.00
13420;BME280;6781;58.440;15.470;2022-12-07T09:42:11;100663.47;;;-5.77;100.00
13420;BME280;6781;58.440;15.470;2022-12-07T09:44:45;100663.44;;;-5.75;100.00
13420;BME280;6781;58.440;15.470;2022-12-07T09:47:12;100664.34;;;-5.79;100.00
13420;BME280;6781;58.440;15.470;2022-12-07T09:49:38;100668.50;;;-5.75;100.00
13420;BME280;6781;58.440;15.470;2022-12-07T09:52:15;100668.44;;;-5.71;100.00
13420;BME280;6781;58.440;15.470;2022-12-07T09:54:45;100671.84;;;-5.73;100.00
13420;BME280;6781;58.440;15.470;2022-12-07T09:57:14;100683.59;;;-5.71;100.00
13420;BME280;6781;58.440;15.470;2022-12-07T09:59:41;100683.63;;;-5.74;100.00
13420;BME280;6781;58.440;15.470;2022-12-07T10:02:21;100689.53;;;-5.73;100.00
13420;BME280;6781;58.440;15.470;2022-12-07T10:04:49;100692.78;;;-5.65;100.00
13420;BME280;6781;58.440;15.470;2022-12-07T10:07:16;100703.63;;;-5.55;100.00
13420;BME280;6781;58.440;15.470;2022-12-07T10:09:43;100706.28;;;-5.66;100.00
13420;BME280;6781;58.440;15.470;2022-12-07T10:12:11;100711.28;;;-5.63;100.00
13420;BME280;6781;58.440;15.470;2022-12-07T10:14:51;100715.50;;;-5.62;100.00
13420;BME280;6781;58.440;15.470;2022-12-07T10:17:27;100719.63;;;-5.55;100.00
13420;BME280;6781;58.440;15.470;2022-12-07T10:20:04;100718.94;;;-5.71;100.00
13420;BME280;6781;58.440;15.470;2022-12-07T10:22:34;100726.47;;;-5.66;100.00
13420;BME280;6781;58.440;15.470;2022-12-07T10:25:07;100738.16;;;-5.56;100.00
13420;BME280;6781;58.440;15.470;2022-12-07T10:27:34;100740.63;;;-5.51;100.00
13420;BME280;6781;58.440;15.470;2022-12-07T10:30:03;100742.31;;;-5.50;100.00
13420;BME280;6781;58.440;15.470;2022-12-07T10:32:35;100762.41;;;-5.40;100.00
13420;BME280;6781;58.440;15.470;2022-12-07T10:35:21;100777.44;;;-5.31;100.00
13420;BME280;6781;58.440;15.470;2022-12-07T10:37:49;100793.38;;;-5.22;100.00
13420;BME280;6781;58.440;15.470;2022-12-07T10:43:01;100805.91;;;-5.18;100.00
13420;BME280;6781;58.440;15.470;2022-12-07T10:45:30;100822.84;;;-5.23;100.00
13420;BME280;6781;58.440;15.470;2022-12-07T10:47:58;100824.50;;;-5.20;100.00
13420;BME280;6781;58.440;15.470;2022-12-07T10:50:35;100834.44;;;-5.08;100.00
13420;BME280;6781;58.440;15.470;2022-12-07T10:53:09;100846.97;;;-4.96;100.00
13420;BME280;6781;58.440;15.470;2022-12-07T10:55:43;100856.25;;;-5.00;100.00
13420;BME280;6781;58.440;15.470;2022-12-07T10:58:18;100872.16;;;-4.90;100.00
13420;BME280;6781;58.440;15.470;2022-12-07T11:00:51;100885.53;;;-4.80;100.00
13420;BME280;6781;58.440;15.470;2022-12-07T11:03:27;100893.06;;;-4.73;100.00
13420;BME280;6781;58.440;15.470;2022-12-07T11:06:00;100898.16;;;-4.79;100.00
13420;BME280;6781;58.440;15.470;2022-12-07T11:08:37;100905.72;;;-4.76;100.00
13420;BME280;6781;58.440;15.470;2022-12-07T11:11:06;100910.69;;;-4.67;100.00
13420;BME280;6781;58.440;15.470;2022-12-07T11:13:37;100917.53;;;-4.75;100.00
13420;BME280;6781;58.440;15.470;2022-12-07T11:16:21;100912.53;;;-4.81;100.00
13420;BME280;6781;58.440;15.470;2022-12-07T11:18:52;100930.09;;;-4.67;100.00
13420;BME280;6781;58.440;15.470;2022-12-07T11:21:25;100930.09;;;-4.67;100.00
13420;BME280;6781;58.440;15.470;2022-12-07T11:23:56;100930.81;;;-4.57;100.00
13420;BME280;6781;58.440;15.470;2022-12-07T11:26:27;100927.47;;;-4.60;100.00
13420;BME280;6781;58.440;15.470;2022-12-07T11:29:02;100936.63;;;-4.51;100.00
13420;BME280;6781;58.440;15.470;2022-12-07T11:31:36;100934.13;;;-4.52;100.00
13420;BME280;6781;58.440;15.470;2022-12-07T11:34:06;100944.13;;;-4.42;100.00
13420;BME280;6781;58.440;15.470;2022-12-07T11:36:37;100943.28;;;-4.42;100.00
13420;BME280;6781;58.440;15.470;2022-12-07T11:39:08;100938.28;;;-4.47;100.00
13420;BME280;6781;58.440;15.470;2022-12-07T11:41:38;100929.88;;;-4.49;100.00
13420;BME280;6781;58.440;15.470;2022-12-07T11:44:11;100918.16;;;-4.57;100.00
13420;BME280;6781;58.440;15.470;2022-12-07T11:46:45;100925.75;;;-4.57;100.00
13420;BME280;6781;58.440;15.470;2022-12-07T11:49:14;100920.59;;;-4.48;100.00
13420;BME280;6781;58.440;15.470;2022-12-07T11:51:46;100928.03;;;-4.36;100.00
13420;BME280;6781;58.440;15.470;2022-12-07T11:54:16;100941.44;;;-4.30;100.00
13420;BME280;6781;58.440;15.470;2022-12-07T11:56:44;100927.13;;;-4.32;100.00
13420;BME280;6781;58.440;15.470;2022-12-07T11:59:16;100927.19;;;-4.37;100.00
13420;BME280;6781;58.440;15.470;2022-12-07T12:01:47;100932.88;;;-4.19;100.00
13420;BME280;6781;58.440;15.470;2022-12-07T12:04:21;100932.84;;;-4.16;100.00
13420;BME280;6781;58.440;15.470;2022-12-07T12:06:50;100938.78;;;-4.19;100.00
13420;BME280;6781;58.440;15.470;2022-12-07T12:09:19;100931.16;;;-4.17;100.00
13420;BME280;6781;58.440;15.470;2022-12-07T12:14:33;100932.00;;;-4.17;100.00
13420;BME280;6781;58.440;15.470;2022-12-07T12:17:19;100931.84;;;-4.05;100.00
13420;BME280;6781;58.440;15.470;2022-12-07T12:20:00;100936.03;;;-4.02;100.00
13420;BME280;6781;58.440;15.470;2022-12-07T12:22:32;100933.53;;;-4.05;100.00
13420;BME280;6781;58.440;15.470;2022-12-07T12:24:59;100926.06;;;-4.14;100.00
13420;BME280;6781;58.440;15.470;2022-12-07T12:27:31;100938.53;;;-4.01;100.00
13420;BME280;6781;58.440;15.470;2022-12-07T12:30:00;100933.56;;;-4.08;100.00
13420;BME280;6781;58.440;15.470;2022-12-07T12:32:32;100938.41;;;-3.91;100.00
13420;BME280;6781;58.440;15.470;2022-12-07T12:35:17;100943.38;;;-3.85;100.00
13420;BME280;6781;58.440;15.470;2022-12-07T12:37:46;100945.16;;;-3.92;100.00
13420;BME280;6781;58.440;15.470;2022-12-07T12:42:58;100946.69;;;-3.80;100.00
13420;BME280;6781;58.440;15.470;2022-12-07T12:45:25;100950.91;;;-3.79;100.00
13420;BME280;6781;58.440;15.470;2022-12-07T12:47:55;100941.75;;;-3.89;100.00
13420;BME280;6781;58.440;15.470;2022-12-07T12:50:26;100941.81;;;-3.92;100.00
13420;BME280;6781;58.440;15.470;2022-12-07T12:53:00;100939.25;;;-3.91;100.00
13420;BME280;6781;58.440;15.470;2022-12-07T13:03:52;100937.34;;;-3.77;100.00
13420;BME280;6781;58.440;15.470;2022-12-07T13:06:29;100939.72;;;-3.66;100.00
13420;BME280;6781;58.440;15.470;2022-12-07T13:09:00;100934.22;;;-3.94;100.00
13420;BME280;6781;58.440;15.470;2022-12-07T13:11:28;100934.22;;;-3.94;100.00